TAF LFMU
AMD LFMU 081930Z 0819/0915 CNL=
METAR LFMU
LFMU 082230Z AUTO 23008KT 9999 FEW048 BKN056 OVC180 06/01 Q1008=
LFMU 082200Z AUTO 25007KT 220V290 CAVOK 06/01 Q1008=
LFMU 082130Z AUTO 27012KT CAVOK 06/01 Q1007=
LFMU 082100Z AUTO 27016KT CAVOK 07/02 Q1007=
LFMU 082030Z AUTO 27012KT CAVOK 06/02 Q1007=
WC LFMU
WS LFMU
WV LFMU